createdAt,value
2022-10-24T00:01:48.672Z,9.56
2022-10-24T00:04:17.360Z,9.57
2022-10-24T00:06:46.014Z,9.49
2022-10-24T00:09:14.666Z,9.51
2022-10-24T00:11:44.745Z,9.43
2022-10-24T00:14:13.438Z,9.35
2022-10-24T00:16:41.753Z,9.39
2022-10-24T00:19:10.411Z,9.42
2022-10-24T00:21:39.310Z,9.38
2022-10-24T00:24:08.689Z,9.39
2022-10-24T00:26:37.776Z,9.38
2022-10-24T00:29:08.002Z,9.37
2022-10-24T00:31:36.581Z,9.32
2022-10-24T00:34:05.779Z,9.38
2022-10-24T00:36:34.558Z,9.26
2022-10-24T00:39:03.412Z,9.30
2022-10-24T00:41:35.289Z,9.36
2022-10-24T00:44:17.184Z,9.32
2022-10-24T00:46:48.475Z,9.37
2022-10-24T00:49:19.469Z,9.47
2022-10-24T00:51:50.459Z,9.47
2022-10-24T00:54:24.176Z,9.48
2022-10-24T00:57:00.841Z,9.61
2022-10-24T00:59:31.458Z,9.58
2022-10-24T01:02:00.237Z,9.69
2022-10-24T01:04:28.631Z,9.74
2022-10-24T01:07:05.319Z,9.81
2022-10-24T01:09:44.701Z,9.85
2022-10-24T01:12:21.579Z,9.94
2022-10-24T01:14:57.587Z,9.96
2022-10-24T01:17:31.411Z,9.97
2022-10-24T01:20:31.670Z,9.98
2022-10-24T01:23:22.297Z,9.95
2022-10-24T01:26:00.734Z,9.90
2022-10-24T01:28:32.249Z,9.76
2022-10-24T01:31:06.876Z,9.48
2022-10-24T01:33:38.416Z,9.51
2022-10-24T01:36:09.760Z,9.51
2022-10-24T01:38:42.643Z,9.53
2022-10-24T01:41:12.918Z,9.36
2022-10-24T01:43:43.603Z,9.26
2022-10-24T01:46:16.658Z,9.17
2022-10-24T01:48:47.241Z,9.06
2022-10-24T01:51:16.884Z,9.06
2022-10-24T01:53:46.239Z,8.99
2022-10-24T01:56:14.921Z,9.02
2022-10-24T01:58:43.313Z,8.94
2022-10-24T02:01:17.106Z,8.99
2022-10-24T02:03:49.084Z,8.93
2022-10-24T02:06:20.601Z,8.96
2022-10-24T02:08:53.051Z,9.00
2022-10-24T02:11:21.880Z,8.94
2022-10-24T02:13:53.831Z,8.96
2022-10-24T02:16:24.032Z,8.90
2022-10-24T02:18:54.650Z,9.19
2022-10-24T02:21:30.430Z,9.25
2022-10-24T02:24:03.135Z,9.03
2022-10-24T02:26:34.796Z,8.87
2022-10-24T02:29:07.643Z,8.87
2022-10-24T02:31:40.971Z,8.78
2022-10-24T02:36:41.791Z,8.65
2022-10-24T02:39:11.663Z,8.68
2022-10-24T02:41:44.009Z,8.67
2022-10-24T02:44:15.226Z,8.60
2022-10-24T02:46:46.093Z,8.71
2022-10-24T02:49:15.194Z,8.48
2022-10-24T02:51:45.561Z,8.53
2022-10-24T02:54:14.063Z,8.51
2022-10-24T02:56:46.561Z,8.50
2022-10-24T02:59:15.164Z,8.46
2022-10-24T03:01:45.528Z,8.41
2022-10-24T03:04:14.027Z,8.33
2022-10-24T03:06:42.768Z,8.30
2022-10-24T03:09:11.490Z,8.34
2022-10-24T03:11:40.244Z,8.27
2022-10-24T03:14:08.942Z,8.29
2022-10-24T03:16:37.194Z,8.25
2022-10-24T03:19:07.362Z,8.29
2022-10-24T03:21:36.873Z,8.15
2022-10-24T03:24:05.899Z,8.22
2022-10-24T03:26:34.752Z,8.27
2022-10-24T03:29:03.369Z,8.29
2022-10-24T03:31:32.799Z,8.21
2022-10-24T03:34:01.579Z,8.19
2022-10-24T03:36:31.602Z,8.31
2022-10-24T03:39:00.342Z,8.29
2022-10-24T03:41:29.207Z,8.23
2022-10-24T03:43:58.267Z,8.19
2022-10-24T03:46:26.547Z,8.23
2022-10-24T03:48:55.337Z,8.20
2022-10-24T03:51:24.014Z,8.24
2022-10-24T03:53:54.123Z,8.52
2022-10-24T03:56:22.892Z,8.34
2022-10-24T03:58:51.295Z,8.35
2022-10-24T04:01:20.067Z,8.41
2022-10-24T04:03:48.967Z,8.34
2022-10-24T04:06:17.634Z,8.51
2022-10-24T04:08:46.335Z,8.50
2022-10-24T04:11:16.392Z,8.53
2022-10-24T04:13:44.734Z,8.43
2022-10-24T04:16:13.318Z,8.53
2022-10-24T04:18:42.042Z,8.45
2022-10-24T04:21:10.736Z,8.41
2022-10-24T04:23:41.311Z,8.50
2022-10-24T04:26:10.393Z,8.44
2022-10-24T04:28:42.289Z,8.45
2022-10-24T04:31:11.202Z,8.48
2022-10-24T04:33:40.057Z,8.54
2022-10-24T04:36:09.237Z,8.63
2022-10-24T04:38:37.951Z,8.73
2022-10-24T04:41:09.797Z,8.87
2022-10-24T04:43:41.867Z,8.83
2022-10-24T04:46:10.508Z,8.83
2022-10-24T04:48:39.214Z,8.87
2022-10-24T04:51:08.429Z,8.79
2022-10-24T04:53:37.117Z,8.76
2022-10-24T04:56:06.515Z,8.98
2022-10-24T04:58:34.838Z,9.02
2022-10-24T05:01:05.508Z,9.04
2022-10-24T05:03:35.539Z,9.00
2022-10-24T05:06:04.206Z,8.79
2022-10-24T05:08:33.954Z,8.94
2022-10-24T05:11:02.653Z,8.89
2022-10-24T05:13:34.317Z,8.91
2022-10-24T05:16:07.103Z,9.01
2022-10-24T05:18:35.538Z,9.12
2022-10-24T05:21:04.545Z,9.13
2022-10-24T05:23:33.439Z,9.16
2022-10-24T05:26:01.958Z,9.19
2022-10-24T05:28:30.731Z,9.20
2022-10-24T05:30:59.402Z,9.30
2022-10-24T05:33:29.734Z,9.38
2022-10-24T05:35:58.484Z,9.21
2022-10-24T05:38:27.341Z,9.15
2022-10-24T05:40:55.680Z,9.16
2022-10-24T05:43:24.322Z,9.18
2022-10-24T05:45:53.007Z,9.21
2022-10-24T05:48:21.709Z,9.06
2022-10-24T05:50:51.682Z,9.17
2022-10-24T05:53:20.292Z,9.12
2022-10-24T05:55:48.606Z,9.22
2022-10-24T05:58:21.078Z,9.25
2022-10-24T06:00:53.727Z,9.09
2022-10-24T06:03:22.964Z,9.16
2022-10-24T06:06:19.251Z,9.28
2022-10-24T06:08:48.453Z,9.30
2022-10-24T06:11:17.340Z,9.40
2022-10-24T06:13:45.644Z,9.28
2022-10-24T06:16:14.340Z,9.21
2022-10-24T06:18:42.957Z,9.42
2022-10-24T06:21:13.619Z,9.59
2022-10-24T06:23:42.238Z,9.58
2022-10-24T06:26:11.738Z,9.64
2022-10-24T06:28:40.697Z,9.65
2022-10-24T06:31:11.132Z,9.64
2022-10-24T06:33:40.124Z,9.77
2022-10-24T06:36:10.452Z,9.75
2022-10-24T06:38:40.629Z,9.73
2022-10-24T06:41:10.313Z,9.72
2022-10-24T06:43:39.327Z,9.66
2022-10-24T06:46:08.336Z,9.76
2022-10-24T06:48:37.653Z,9.62
2022-10-24T06:51:06.507Z,9.56
2022-10-24T06:53:35.278Z,9.71
2022-10-24T06:56:06.616Z,9.70
2022-10-24T06:58:35.567Z,9.72
2022-10-24T07:01:09.223Z,9.70
2022-10-24T07:03:37.970Z,9.65
2022-10-24T07:06:10.725Z,9.65
2022-10-24T07:08:39.481Z,9.58
2022-10-24T07:11:09.558Z,9.67
2022-10-24T07:13:37.952Z,9.62
2022-10-24T07:16:07.336Z,9.88
2022-10-24T07:18:36.070Z,9.76
2022-10-24T07:21:05.620Z,9.73
2022-10-24T07:23:35.113Z,9.83
2022-10-24T07:26:04.668Z,9.83
2022-10-24T07:28:34.976Z,9.95
2022-10-24T07:31:03.926Z,10.10
2022-10-24T07:33:33.002Z,10.08
2022-10-24T07:36:01.670Z,10.12
2022-10-24T07:38:30.543Z,10.12
2022-10-24T07:41:00.773Z,10.34
2022-10-24T07:43:29.014Z,10.37
2022-10-24T07:45:58.995Z,10.49
2022-10-24T07:48:27.753Z,10.68
2022-10-24T07:50:56.317Z,10.71
2022-10-24T07:53:26.155Z,10.69
2022-10-24T07:55:55.220Z,10.84
2022-10-24T07:58:23.916Z,10.78
2022-10-24T08:00:52.525Z,10.76
2022-10-24T08:03:22.601Z,10.91
2022-10-24T08:05:57.185Z,10.83
2022-10-24T08:08:36.224Z,10.99
2022-10-24T08:11:09.319Z,11.27
2022-10-24T08:13:38.707Z,11.31
2022-10-24T08:16:08.653Z,11.36
2022-10-24T08:18:39.955Z,11.22
2022-10-24T08:21:10.633Z,11.23
2022-10-24T08:23:41.052Z,11.32
2022-10-24T08:26:09.583Z,11.37
2022-10-24T08:28:37.816Z,11.13
2022-10-24T08:31:08.478Z,10.89
2022-10-24T08:33:38.698Z,11.21
2022-10-24T08:36:15.714Z,11.17
2022-10-24T08:38:44.446Z,10.93
2022-10-24T08:41:17.606Z,11.12
2022-10-24T08:43:45.863Z,11.07
2022-10-24T08:46:33.271Z,11.16
2022-10-24T08:49:06.951Z,11.20
2022-10-24T08:51:41.534Z,11.21
2022-10-24T08:54:12.737Z,11.66
2022-10-24T08:56:42.122Z,11.85
2022-10-24T08:59:12.427Z,11.81
2022-10-24T09:01:45.359Z,12.49
2022-10-24T09:04:17.879Z,12.51
2022-10-24T09:06:47.466Z,13.02
2022-10-24T09:09:21.318Z,12.67
2022-10-24T09:11:52.964Z,13.09
2022-10-24T09:14:23.316Z,13.59
2022-10-24T09:16:54.377Z,13.87
2022-10-24T09:19:26.259Z,13.78
2022-10-24T09:21:56.013Z,14.50
2022-10-24T09:24:39.281Z,14.79
2022-10-24T09:27:12.792Z,14.95
2022-10-24T09:29:41.476Z,14.73
2022-10-24T09:32:16.734Z,15.52
2022-10-24T09:34:46.977Z,15.02
2022-10-24T09:37:44.031Z,14.85
2022-10-24T09:40:19.955Z,13.96
2022-10-24T09:42:52.297Z,13.49
2022-10-24T09:45:31.187Z,13.25
2022-10-24T09:48:02.939Z,13.90
2022-10-24T09:50:34.607Z,13.53
2022-10-24T09:53:04.396Z,13.99
2022-10-24T09:55:34.431Z,14.16
2022-10-24T09:58:05.475Z,14.35
2022-10-24T10:00:36.331Z,14.80
2022-10-24T10:03:07.342Z,15.52
2022-10-24T10:05:48.500Z,16.04
2022-10-24T10:08:20.892Z,15.57
2022-10-24T10:11:00.865Z,14.91
2022-10-24T10:13:29.729Z,14.54
2022-10-24T10:16:00.801Z,14.71
2022-10-24T10:18:35.495Z,14.76
2022-10-24T10:21:09.450Z,14.75
2022-10-24T10:23:40.009Z,15.30
2022-10-24T10:26:20.446Z,15.58
2022-10-24T10:29:00.623Z,15.97
2022-10-24T10:31:35.888Z,16.99
2022-10-24T10:34:16.103Z,17.26
2022-10-24T10:37:04.157Z,17.64
2022-10-24T10:39:46.971Z,19.05
2022-10-24T10:42:19.070Z,19.81
2022-10-24T10:44:59.384Z,20.31
2022-10-24T10:47:35.330Z,19.09
2022-10-24T10:50:04.947Z,18.33
2022-10-24T10:52:41.800Z,17.44
2022-10-24T10:55:27.283Z,16.80
2022-10-24T10:58:02.188Z,16.92
2022-10-24T11:00:37.677Z,16.21
2022-10-24T11:03:18.612Z,16.44
2022-10-24T11:05:55.335Z,16.66
2022-10-24T11:08:39.973Z,16.52
2022-10-24T11:11:12.572Z,16.81
2022-10-24T11:13:44.837Z,17.24
2022-10-24T11:16:15.922Z,17.22
2022-10-24T11:18:47.953Z,17.53
2022-10-24T11:21:17.971Z,16.62
2022-10-24T11:23:51.700Z,16.44
2022-10-24T11:26:24.193Z,16.66
2022-10-24T11:28:57.555Z,16.79
2022-10-24T11:31:29.507Z,16.26
2022-10-24T11:34:01.934Z,15.72
2022-10-24T11:36:33.924Z,16.13
2022-10-24T11:39:08.341Z,17.28
2022-10-24T11:41:46.494Z,17.67
2022-10-24T11:44:30.757Z,17.69
2022-10-24T11:47:08.863Z,17.86
2022-10-24T11:49:40.610Z,17.79
2022-10-24T11:52:15.933Z,18.50
2022-10-24T11:54:51.098Z,20.32
2022-10-24T11:57:23.673Z,21.67
2022-10-24T11:59:54.273Z,22.72
2022-10-24T12:03:12.966Z,23.94
2022-10-24T12:05:53.183Z,22.94
2022-10-24T12:08:36.284Z,26.43
2022-10-24T12:11:33.307Z,28.91
2022-10-24T12:14:40.429Z,28.72
2022-10-24T12:17:20.234Z,30.40
2022-10-24T12:19:51.312Z,33.22
2022-10-24T12:22:23.870Z,35.00
2022-10-24T12:25:05.033Z,34.24
2022-10-24T12:27:39.576Z,31.42
2022-10-24T12:30:17.606Z,29.50
2022-10-24T12:32:47.789Z,24.70
2022-10-24T12:35:53.050Z,22.90
2022-10-24T12:39:09.268Z,23.64
2022-10-24T12:41:45.584Z,23.21
2022-10-24T12:44:46.015Z,22.33
2022-10-24T12:47:32.767Z,20.91
2022-10-24T12:50:54.917Z,21.90
2022-10-24T12:53:38.350Z,23.34
2022-10-24T12:56:15.798Z,23.92
2022-10-24T12:58:47.069Z,23.46
2022-10-24T13:01:29.791Z,22.04
2022-10-24T13:04:30.632Z,20.77
2022-10-24T13:07:40.644Z,20.40
2022-10-24T13:10:20.165Z,19.98
2022-10-24T13:12:59.179Z,20.64
2022-10-24T13:15:40.064Z,21.86
2022-10-24T13:18:25.091Z,21.32
2022-10-24T13:21:15.358Z,20.19
2022-10-24T13:23:45.320Z,20.14
2022-10-24T13:26:37.938Z,20.07
2022-10-24T13:29:06.888Z,19.58
2022-10-24T13:31:44.067Z,19.97
2022-10-24T13:34:25.278Z,19.51
2022-10-24T13:37:01.928Z,19.94
2022-10-24T13:39:37.456Z,19.19
2022-10-24T13:42:13.077Z,18.77
2022-10-24T13:44:47.400Z,18.63
2022-10-24T13:47:19.911Z,18.67
2022-10-24T13:49:59.699Z,18.09
2022-10-24T13:52:36.535Z,17.65
2022-10-24T13:55:18.479Z,17.74
2022-10-24T13:57:56.521Z,17.62
2022-10-24T14:00:27.068Z,17.25
2022-10-24T14:02:56.844Z,17.88
2022-10-24T14:05:32.002Z,17.60
2022-10-24T14:08:01.375Z,17.82
2022-10-24T14:10:30.561Z,18.15
2022-10-24T14:13:00.512Z,18.02
2022-10-24T14:15:31.904Z,18.54
2022-10-24T14:18:03.118Z,18.27
2022-10-24T14:20:36.745Z,17.86
2022-10-24T14:23:17.399Z,17.98
2022-10-24T14:25:46.479Z,17.59
2022-10-24T14:28:20.423Z,17.43
2022-10-24T14:30:55.132Z,17.32
2022-10-24T14:33:25.817Z,17.25
2022-10-24T14:35:58.189Z,17.33
2022-10-24T14:38:27.653Z,17.10
2022-10-24T14:41:08.296Z,16.94
2022-10-24T14:43:40.139Z,16.55
2022-10-24T14:46:28.128Z,16.34
2022-10-24T14:48:56.881Z,16.27
2022-10-24T14:51:31.144Z,16.09
2022-10-24T14:54:02.681Z,15.97
2022-10-24T14:56:33.993Z,15.89
2022-10-24T14:59:06.277Z,15.84
2022-10-24T15:01:34.628Z,15.78
2022-10-24T15:04:05.658Z,15.71
2022-10-24T15:06:41.041Z,15.60
2022-10-24T15:09:18.219Z,15.53
2022-10-24T15:11:48.408Z,15.52
2022-10-24T15:14:39.156Z,15.44
2022-10-24T15:17:22.473Z,15.32
2022-10-24T15:19:51.853Z,15.29
2022-10-24T15:22:27.209Z,15.24
2022-10-24T15:24:57.632Z,15.18
2022-10-24T15:27:28.745Z,15.12
2022-10-24T15:29:57.889Z,15.06
2022-10-24T15:32:26.636Z,15.05
2022-10-24T15:34:56.002Z,15.00
2022-10-24T15:37:28.666Z,14.97
2022-10-24T15:39:57.589Z,14.97
2022-10-24T15:42:26.572Z,14.94
2022-10-24T15:44:55.535Z,14.91
2022-10-24T15:47:24.618Z,14.88
2022-10-24T15:49:52.961Z,14.84
2022-10-24T15:52:21.787Z,14.82
2022-10-24T15:54:51.904Z,14.84
2022-10-24T15:57:21.153Z,14.81
2022-10-24T15:59:49.961Z,14.74
2022-10-24T16:02:24.023Z,14.76
2022-10-24T16:04:52.566Z,14.69
2022-10-24T16:07:21.341Z,14.67
2022-10-24T16:09:51.544Z,14.64
2022-10-24T16:12:20.280Z,14.71
2022-10-24T16:14:49.253Z,14.73
2022-10-24T16:17:17.814Z,14.64
2022-10-24T16:19:46.542Z,14.57
2022-10-24T16:22:15.586Z,14.46
2022-10-24T16:24:44.330Z,14.44
2022-10-24T16:27:14.471Z,14.41
2022-10-24T16:29:45.940Z,14.36
2022-10-24T16:32:14.761Z,14.29
2022-10-24T16:34:44.743Z,14.24
2022-10-24T16:37:13.393Z,14.10
2022-10-24T16:39:42.664Z,14.07
2022-10-24T16:42:11.316Z,14.07
2022-10-24T16:44:41.520Z,14.07
2022-10-24T16:47:10.299Z,14.01
2022-10-24T16:49:38.730Z,13.99
2022-10-24T16:52:07.482Z,13.99
2022-10-24T16:54:36.317Z,14.01
2022-10-24T16:57:05.202Z,13.92
2022-10-24T16:59:33.937Z,13.71
2022-10-24T17:02:04.085Z,13.72
2022-10-24T17:04:33.866Z,13.63
2022-10-24T17:07:04.445Z,13.65
2022-10-24T17:09:33.349Z,13.58
2022-10-24T17:12:02.014Z,13.53
2022-10-24T17:14:31.148Z,13.56
2022-10-24T17:17:00.001Z,13.40
2022-10-24T17:19:30.745Z,13.38
2022-10-24T17:21:59.800Z,13.35
2022-10-24T17:24:28.840Z,13.31
2022-10-24T17:26:58.111Z,13.28
2022-10-24T17:29:29.094Z,13.27
2022-10-24T17:31:57.756Z,13.21
2022-10-24T17:34:27.514Z,13.16
2022-10-24T17:37:02.786Z,13.13
2022-10-24T17:39:33.817Z,13.18
2022-10-24T17:42:02.830Z,13.19
2022-10-24T17:44:31.890Z,13.17
2022-10-24T17:47:00.874Z,13.36
2022-10-24T17:49:29.172Z,13.32
2022-10-24T17:51:59.354Z,13.35
2022-10-24T17:54:28.177Z,13.38
2022-10-24T17:56:56.790Z,13.40
2022-10-24T17:59:25.882Z,13.40
2022-10-24T18:01:54.409Z,13.39
2022-10-24T18:04:26.416Z,13.32
2022-10-24T18:07:05.755Z,13.42
2022-10-24T18:09:40.286Z,13.41
2022-10-24T18:12:16.011Z,13.44
2022-10-24T18:14:50.131Z,13.45
2022-10-24T18:17:40.703Z,13.39
2022-10-24T18:20:16.406Z,13.38
2022-10-24T18:22:46.798Z,13.35
2022-10-24T18:25:20.227Z,13.35
2022-10-24T18:27:51.930Z,13.42
2022-10-24T18:30:21.020Z,13.40
2022-10-24T18:32:50.487Z,13.31
2022-10-24T18:35:21.941Z,13.32
2022-10-24T18:40:22.600Z,13.32
2022-10-24T18:42:53.594Z,13.25
2022-10-24T18:45:24.054Z,13.25
2022-10-24T18:47:54.389Z,13.14
2022-10-24T18:50:24.945Z,13.09
2022-10-24T18:52:57.577Z,13.06
2022-10-24T18:55:28.109Z,12.97
2022-10-24T18:57:57.084Z,12.95
2022-10-24T19:00:27.110Z,12.86
2022-10-24T19:03:03.159Z,12.86
2022-10-24T19:05:41.469Z,12.86
2022-10-24T19:08:14.973Z,12.80
2022-10-24T19:10:43.937Z,12.76
2022-10-24T19:13:13.428Z,12.92
2022-10-24T19:15:44.580Z,12.84
2022-10-24T19:18:15.716Z,12.67
2022-10-24T19:20:44.710Z,12.72
2022-10-24T19:23:17.491Z,12.73
2022-10-24T19:25:46.043Z,12.79
2022-10-24T19:28:18.126Z,12.97
2022-10-24T19:30:47.392Z,12.96
2022-10-24T19:33:16.644Z,12.93
2022-10-24T19:35:47.335Z,12.98
2022-10-24T19:38:18.428Z,13.00
2022-10-24T19:40:48.029Z,13.07
2022-10-24T19:43:16.752Z,13.05
2022-10-24T19:45:50.227Z,13.02
2022-10-24T19:48:19.789Z,13.02
2022-10-24T19:50:48.481Z,12.92
2022-10-24T19:53:18.589Z,13.02
2022-10-24T19:55:46.867Z,13.05
2022-10-24T19:58:18.898Z,13.09
2022-10-24T20:00:48.017Z,13.13
2022-10-24T20:03:17.362Z,13.20
2022-10-24T20:05:46.871Z,13.20
2022-10-24T20:08:19.696Z,13.27
2022-10-24T20:10:52.675Z,13.33
2022-10-24T20:13:21.534Z,13.33
2022-10-24T20:15:54.406Z,13.30
2022-10-24T20:18:23.482Z,13.30
2022-10-24T20:20:52.720Z,13.36
2022-10-24T20:23:23.951Z,13.41
2022-10-24T20:25:58.939Z,13.45
2022-10-24T20:28:27.903Z,13.50
2022-10-24T20:30:56.872Z,13.52
2022-10-24T20:33:25.536Z,13.56
2022-10-24T20:35:54.159Z,13.65
2022-10-24T20:38:24.208Z,13.55
2022-10-24T20:40:52.638Z,13.52
2022-10-24T20:43:21.469Z,13.55
2022-10-24T20:45:50.218Z,13.64
2022-10-24T20:48:18.921Z,13.54
2022-10-24T20:50:47.563Z,13.55
2022-10-24T20:53:16.652Z,13.50
2022-10-24T20:55:46.397Z,13.62
2022-10-24T20:58:15.077Z,13.60
2022-10-24T21:00:43.847Z,13.64
2022-10-24T21:03:14.393Z,13.72
2022-10-24T21:05:43.189Z,13.72
2022-10-24T21:08:11.989Z,13.74
2022-10-24T21:10:40.423Z,13.76
2022-10-24T21:13:10.482Z,13.80
2022-10-24T21:15:39.098Z,13.77
2022-10-24T21:18:07.747Z,13.86
2022-10-24T21:20:37.284Z,13.87
2022-10-24T21:23:05.863Z,13.95
2022-10-24T21:25:34.122Z,14.04
2022-10-24T21:28:02.781Z,14.11
2022-10-24T21:30:32.782Z,14.23
2022-10-24T21:33:01.603Z,14.37
2022-10-24T21:35:30.221Z,14.44
2022-10-24T21:37:58.904Z,14.55
2022-10-24T21:40:27.207Z,14.62
2022-10-24T21:42:55.849Z,14.73
2022-10-24T21:45:24.495Z,14.80
2022-10-24T21:47:54.486Z,14.88
2022-10-24T21:50:23.128Z,14.90
2022-10-24T21:52:51.400Z,14.93
2022-10-24T21:55:20.074Z,14.98
2022-10-24T21:57:48.710Z,15.00
2022-10-24T22:00:17.658Z,15.07
2022-10-24T22:02:46.719Z,15.08
2022-10-24T22:05:19.226Z,15.00
2022-10-24T22:07:49.812Z,15.11
2022-10-24T22:10:20.162Z,15.11
2022-10-24T22:12:48.741Z,15.07
2022-10-24T22:15:17.592Z,15.08
2022-10-24T22:17:46.502Z,15.12
2022-10-24T22:20:16.868Z,15.15
2022-10-24T22:22:45.082Z,15.12
2022-10-24T22:25:13.773Z,15.06
2022-10-24T22:27:42.368Z,14.97
2022-10-24T22:30:11.654Z,14.97
2022-10-24T22:32:40.547Z,14.87
2022-10-24T22:35:11.246Z,14.87
2022-10-24T22:37:41.657Z,14.82
2022-10-24T22:40:18.330Z,14.85
2022-10-24T22:42:47.665Z,14.81
2022-10-24T22:45:17.853Z,14.78
2022-10-24T22:48:11.257Z,14.80
2022-10-24T22:50:49.199Z,14.76
2022-10-24T22:53:21.378Z,14.72
2022-10-24T22:56:04.515Z,14.73
2022-10-24T22:58:33.862Z,14.69
2022-10-24T23:01:06.839Z,14.64
2022-10-24T23:03:42.155Z,14.70
2022-10-24T23:06:14.906Z,14.68
2022-10-24T23:08:45.835Z,14.65
2022-10-24T23:11:15.426Z,14.66
2022-10-24T23:13:44.327Z,14.62
2022-10-24T23:16:21.341Z,14.60
2022-10-24T23:18:50.495Z,14.56
2022-10-24T23:21:23.908Z,14.52
2022-10-24T23:23:54.646Z,14.50
2022-10-24T23:26:30.737Z,14.50
2022-10-24T23:29:02.141Z,14.48
2022-10-24T23:31:31.258Z,14.45
2022-10-24T23:34:00.437Z,14.39
2022-10-24T23:36:30.195Z,14.40
2022-10-24T23:39:01.021Z,14.39
2022-10-24T23:41:30.042Z,14.35
2022-10-24T23:43:59.268Z,14.27
2022-10-24T23:46:32.156Z,14.17
2022-10-24T23:49:09.957Z,14.15
2022-10-24T23:51:42.500Z,14.11
2022-10-24T23:54:14.053Z,14.11
2022-10-24T23:56:43.102Z,14.05
2022-10-24T23:59:11.726Z,14.05
